sensor_id;sensor_type;location;lat;lon;timestamp;pressure;altitude;pressure_sealevel;temperature;humidity
55044;BME280;54902;50.420;18.854;2023-05-25T00:00:28;101883.61;;;12.95;74.40
55044;BME280;54902;50.420;18.854;2023-05-25T00:00:59;101895.45;;;12.95;74.39
55044;BME280;54902;50.420;18.854;2023-05-25T00:01:30;101897.33;;;12.95;74.39
55044;BME280;54902;50.420;18.854;2023-05-25T00:02:04;101890.86;;;12.96;74.38
55044;BME280;54902;50.420;18.854;2023-05-25T00:02:36;101899.18;;;12.94;74.34
55044;BME280;54902;50.420;18.854;2023-05-25T00:03:09;101889.09;;;12.95;74.35
55044;BME280;54902;50.420;18.854;2023-05-25T00:03:40;101894.59;;;12.95;74.34
55044;BME280;54902;50.420;18.854;2023-05-25T00:04:12;101892.83;;;12.94;74.35
55044;BME280;54902;50.420;18.854;2023-05-25T00:04:47;101896.43;;;12.94;74.35
55044;BME280;54902;50.420;18.854;2023-05-25T00:05:19;101892.83;;;12.94;74.36
55044;BME280;54902;50.420;18.854;2023-05-25T00:05:50;101899.18;;;12.94;74.38
55044;BME280;54902;50.420;18.854;2023-05-25T00:06:23;101893.69;;;12.94;74.37
55044;BME280;54902;50.420;18.854;2023-05-25T00:06:59;101889.09;;;12.95;74.38
55044;BME280;54902;50.420;18.854;2023-05-25T00:07:31;101893.69;;;12.94;74.36
55044;BME280;54902;50.420;18.854;2023-05-25T00:08:01;101890.08;;;12.94;74.36
55044;BME280;54902;50.420;18.854;2023-05-25T00:08:32;101888.20;;;12.94;74.35
55044;BME280;54902;50.420;18.854;2023-05-25T00:09:04;101889.09;;;12.95;74.38
55044;BME280;54902;50.420;18.854;2023-05-25T00:09:35;101889.09;;;12.95;74.39
55044;BME280;54902;50.420;18.854;2023-05-25T00:10:07;101889.96;;;12.95;74.41
55044;BME280;54902;50.420;18.854;2023-05-25T00:10:38;101888.20;;;12.94;74.43
55044;BME280;54902;50.420;18.854;2023-05-25T00:11:09;101892.83;;;12.94;74.41
55044;BME280;54902;50.420;18.854;2023-05-25T00:11:40;101894.59;;;12.95;74.40
55044;BME280;54902;50.420;18.854;2023-05-25T00:12:11;101894.59;;;12.95;74.41
55044;BME280;54902;50.420;18.854;2023-05-25T00:12:42;101893.69;;;12.94;74.38
55044;BME280;54902;50.420;18.854;2023-05-25T00:13:13;101899.18;;;12.94;74.39
55044;BME280;54902;50.420;18.854;2023-05-25T00:13:44;101898.31;;;12.94;74.40
55044;BME280;54902;50.420;18.854;2023-05-25T00:14:15;101900.08;;;12.95;74.39
55044;BME280;54902;50.420;18.854;2023-05-25T00:14:46;101889.09;;;12.95;74.38
55044;BME280;54902;50.420;18.854;2023-05-25T00:15:17;101886.48;;;12.93;74.36
55044;BME280;54902;50.420;18.854;2023-05-25T00:15:48;101895.57;;;12.94;74.39
55044;BME280;54902;50.420;18.854;2023-05-25T00:16:19;101893.69;;;12.94;74.38
55044;BME280;54902;50.420;18.854;2023-05-25T00:16:50;101885.57;;;12.93;74.37
55044;BME280;54902;50.420;18.854;2023-05-25T00:17:22;101886.48;;;12.93;74.35
55044;BME280;54902;50.420;18.854;2023-05-25T00:17:53;101882.83;;;12.93;74.38
55044;BME280;54902;50.420;18.854;2023-05-25T00:18:25;101887.34;;;12.94;74.49
55044;BME280;54902;50.420;18.854;2023-05-25T00:18:56;101887.34;;;12.94;74.49
55044;BME280;54902;50.420;18.854;2023-05-25T00:19:27;101886.48;;;12.93;74.44
55044;BME280;54902;50.420;18.854;2023-05-25T00:19:58;101884.60;;;12.94;74.44
55044;BME280;54902;50.420;18.854;2023-05-25T00:20:36;101877.23;;;12.94;74.43
55044;BME280;54902;50.420;18.854;2023-05-25T00:21:08;101885.57;;;12.93;74.40
55044;BME280;54902;50.420;18.854;2023-05-25T00:21:41;101885.57;;;12.93;74.39
55044;BME280;54902;50.420;18.854;2023-05-25T00:22:12;101889.22;;;12.93;74.37
55044;BME280;54902;50.420;18.854;2023-05-25T00:22:43;101878.34;;;12.92;74.35
55044;BME280;54902;50.420;18.854;2023-05-25T00:23:17;101879.23;;;12.92;74.35
55044;BME280;54902;50.420;18.854;2023-05-25T00:23:47;101892.04;;;12.92;74.33
55044;BME280;54902;50.420;18.854;2023-05-25T00:24:18;101873.75;;;12.92;74.34
55044;BME280;54902;50.420;18.854;2023-05-25T00:24:49;101884.72;;;12.92;74.34
55044;BME280;54902;50.420;18.854;2023-05-25T00:25:20;101886.56;;;12.92;74.37
55044;BME280;54902;50.420;18.854;2023-05-25T00:25:51;101883.81;;;12.92;74.35
55044;BME280;54902;50.420;18.854;2023-05-25T00:26:22;101886.56;;;12.92;74.36
55044;BME280;54902;50.420;18.854;2023-05-25T00:26:53;101887.59;;;12.91;74.34
55044;BME280;54902;50.420;18.854;2023-05-25T00:27:24;101883.81;;;12.92;74.34
55044;BME280;54902;50.420;18.854;2023-05-25T00:27:55;101893.06;;;12.91;74.35
55044;BME280;54902;50.420;18.854;2023-05-25T00:28:26;101887.59;;;12.91;74.33
55044;BME280;54902;50.420;18.854;2023-05-25T00:28:57;101885.81;;;12.90;74.32
55044;BME280;54902;50.420;18.854;2023-05-25T00:29:30;101880.33;;;12.90;74.31
55044;BME280;54902;50.420;18.854;2023-05-25T00:30:01;101885.81;;;12.90;74.33
55044;BME280;54902;50.420;18.854;2023-05-25T00:30:32;101889.43;;;12.90;74.31
55044;BME280;54902;50.420;18.854;2023-05-25T00:31:03;101884.06;;;12.89;74.29
55044;BME280;54902;50.420;18.854;2023-05-25T00:31:34;101884.96;;;12.89;74.30
55044;BME280;54902;50.420;18.854;2023-05-25T00:32:06;101875.21;;;12.85;74.33
55044;BME280;54902;50.420;18.854;2023-05-25T00:32:37;101881.32;;;12.89;74.28
55044;BME280;54902;50.420;18.854;2023-05-25T00:33:08;101884.06;;;12.89;74.27
55044;BME280;54902;50.420;18.854;2023-05-25T00:33:40;101882.30;;;12.88;74.31
55044;BME280;54902;50.420;18.854;2023-05-25T00:34:10;101886.81;;;12.89;74.39
55044;BME280;54902;50.420;18.854;2023-05-25T00:34:41;101880.46;;;12.88;74.42
55044;BME280;54902;50.420;18.854;2023-05-25T00:35:12;101893.19;;;12.89;74.41
55044;BME280;54902;50.420;18.854;2023-05-25T00:35:44;101892.29;;;12.89;74.37
55044;BME280;54902;50.420;18.854;2023-05-25T00:36:16;101887.79;;;12.88;74.42
55044;BME280;54902;50.420;18.854;2023-05-25T00:36:46;101890.45;;;12.89;74.40
55044;BME280;54902;50.420;18.854;2023-05-25T00:37:17;101886.93;;;12.87;74.37
55044;BME280;54902;50.420;18.854;2023-05-25T00:37:48;101890.53;;;12.88;74.38
55044;BME280;54902;50.420;18.854;2023-05-25T00:38:21;101881.77;;;12.83;74.56
55044;BME280;54902;50.420;18.854;2023-05-25T00:38:52;101888.80;;;12.87;74.36
55044;BME280;54902;50.420;18.854;2023-05-25T00:39:23;101897.04;;;12.87;74.35
55044;BME280;54902;50.420;18.854;2023-05-25T00:39:54;101885.17;;;12.86;74.35
55044;BME280;54902;50.420;18.854;2023-05-25T00:40:25;101884.30;;;12.86;74.36
55044;BME280;54902;50.420;18.854;2023-05-25T00:40:56;101888.93;;;12.85;74.36
55044;BME280;54902;50.420;18.854;2023-05-25T00:41:27;101895.27;;;12.86;74.37
55044;BME280;54902;50.420;18.854;2023-05-25T00:42:01;101881.55;;;12.86;74.37
55044;BME280;54902;50.420;18.854;2023-05-25T00:42:32;101888.93;;;12.85;74.34
55044;BME280;54902;50.420;18.854;2023-05-25T00:43:03;101885.17;;;12.86;74.35
55044;BME280;54902;50.420;18.854;2023-05-25T00:43:35;101878.81;;;12.86;74.37
55044;BME280;54902;50.420;18.854;2023-05-25T00:44:06;101883.45;;;12.85;74.36
55044;BME280;54902;50.420;18.854;2023-05-25T00:44:37;101884.30;;;12.86;74.39
55044;BME280;54902;50.420;18.854;2023-05-25T00:45:09;101890.66;;;12.86;74.38
55044;BME280;54902;50.420;18.854;2023-05-25T00:45:40;101882.55;;;12.85;74.38
55044;BME280;54902;50.420;18.854;2023-05-25T00:46:13;101881.55;;;12.86;74.44
55044;BME280;54902;50.420;18.854;2023-05-25T00:46:48;101879.80;;;12.85;74.45
55044;BME280;54902;50.420;18.854;2023-05-25T00:47:20;101882.55;;;12.85;74.48
55044;BME280;54902;50.420;18.854;2023-05-25T00:47:52;101889.80;;;12.86;74.48
55044;BME280;54902;50.420;18.854;2023-05-25T00:48:25;101888.93;;;12.85;74.46
55044;BME280;54902;50.420;18.854;2023-05-25T00:48:56;101881.55;;;12.86;74.48
55044;BME280;54902;50.420;18.854;2023-05-25T00:49:27;101885.28;;;12.85;74.48
55044;BME280;54902;50.420;18.854;2023-05-25T00:50:00;101891.67;;;12.85;74.45
55044;BME280;54902;50.420;18.854;2023-05-25T00:50:41;101888.02;;;12.85;74.47
55044;BME280;54902;50.420;18.854;2023-05-25T00:51:13;101882.55;;;12.85;74.48
55044;BME280;54902;50.420;18.854;2023-05-25T00:51:46;101894.46;;;12.84;74.49
55044;BME280;54902;50.420;18.854;2023-05-25T00:52:17;101883.49;;;12.84;74.50
55044;BME280;54902;50.420;18.854;2023-05-25T00:52:48;101887.13;;;12.84;74.52
55044;BME280;54902;50.420;18.854;2023-05-25T00:53:20;101885.28;;;12.85;74.48
55044;BME280;54902;50.420;18.854;2023-05-25T00:53:51;101879.02;;;12.83;74.46
55044;BME280;54902;50.420;18.854;2023-05-25T00:54:22;101878.13;;;12.82;74.46
55044;BME280;54902;50.420;18.854;2023-05-25T00:54:54;101875.27;;;12.84;74.43
55044;BME280;54902;50.420;18.854;2023-05-25T00:55:28;101884.51;;;12.83;74.41
55044;BME280;54902;50.420;18.854;2023-05-25T00:56:09;101883.61;;;12.82;74.45
55044;BME280;54902;50.420;18.854;2023-05-25T00:56:45;101887.25;;;12.83;74.43
55044;BME280;54902;50.420;18.854;2023-05-25T00:57:19;101885.49;;;12.82;74.41
55044;BME280;54902;50.420;18.854;2023-05-25T00:57:54;101886.36;;;12.82;74.44
55044;BME280;54902;50.420;18.854;2023-05-25T00:58:30;101888.24;;;12.82;74.44
55044;BME280;54902;50.420;18.854;2023-05-25T00:59:05;101888.24;;;12.82;74.51
55044;BME280;54902;50.420;18.854;2023-05-25T00:59:41;101885.49;;;12.82;74.52
55044;BME280;54902;50.420;18.854;2023-05-25T01:00:14;101878.25;;;12.81;74.56
55044;BME280;54902;50.420;18.854;2023-05-25T01:00:48;101890.98;;;12.82;74.57
55044;BME280;54902;50.420;18.854;2023-05-25T01:01:21;101883.73;;;12.81;74.52
55044;BME280;54902;50.420;18.854;2023-05-25T01:01:53;101886.48;;;12.81;74.54
55044;BME280;54902;50.420;18.854;2023-05-25T01:02:25;101888.24;;;12.82;74.51
55044;BME280;54902;50.420;18.854;2023-05-25T01:03:00;101891.96;;;12.81;74.50
55044;BME280;54902;50.420;18.854;2023-05-25T01:03:36;101886.48;;;12.81;74.46
55044;BME280;54902;50.420;18.854;2023-05-25T01:04:12;101892.83;;;12.81;74.45
55044;BME280;54902;50.420;18.854;2023-05-25T01:04:51;101890.20;;;12.80;74.45
55044;BME280;54902;50.420;18.854;2023-05-25T01:05:24;101875.21;;;12.73;74.45
55044;BME280;54902;50.420;18.854;2023-05-25T01:05:59;101890.20;;;12.80;74.46
55044;BME280;54902;50.420;18.854;2023-05-25T01:06:32;101896.59;;;12.80;74.46
55044;BME280;54902;50.420;18.854;2023-05-25T01:07:07;101894.83;;;12.79;74.50
55044;BME280;54902;50.420;18.854;2023-05-25T01:07:43;101899.33;;;12.80;74.53
55044;BME280;54902;50.420;18.854;2023-05-25T01:08:16;101900.31;;;12.79;74.53
55044;BME280;54902;50.420;18.854;2023-05-25T01:08:57;101895.69;;;12.80;74.56
55044;BME280;54902;50.420;18.854;2023-05-25T01:09:33;101901.18;;;12.80;74.53
55044;BME280;54902;50.420;18.854;2023-05-25T01:10:06;101899.45;;;12.79;74.53
55044;BME280;54902;50.420;18.854;2023-05-25T01:10:41;101906.66;;;12.80;74.54
55044;BME280;54902;50.420;18.854;2023-05-25T01:11:14;101910.42;;;12.79;74.68
55044;BME280;54902;50.420;18.854;2023-05-25T01:11:48;101903.92;;;12.80;74.75
55044;BME280;54902;50.420;18.854;2023-05-25T01:12:21;101902.94;;;12.81;74.76
55044;BME280;54902;50.420;18.854;2023-05-25T01:12:54;101901.18;;;12.80;74.68
55044;BME280;54902;50.420;18.854;2023-05-25T01:13:26;101904.81;;;12.80;74.66
55044;BME280;54902;50.420;18.854;2023-05-25T01:13:58;101903.05;;;12.79;74.63
55044;BME280;54902;50.420;18.854;2023-05-25T01:14:30;101904.93;;;12.79;74.59
55044;BME280;54902;50.420;18.854;2023-05-25T01:15:04;101909.52;;;12.78;74.65
55044;BME280;54902;50.420;18.854;2023-05-25T01:15:36;101904.04;;;12.78;74.68
55044;BME280;54902;50.420;18.854;2023-05-25T01:16:08;101904.93;;;12.79;74.71
55044;BME280;54902;50.420;18.854;2023-05-25T01:16:40;101908.66;;;12.78;74.76
55044;BME280;54902;50.420;18.854;2023-05-25T01:17:13;101902.19;;;12.79;74.73
55044;BME280;54902;50.420;18.854;2023-05-25T01:17:45;101906.78;;;12.78;74.74
55044;BME280;54902;50.420;18.854;2023-05-25T01:18:18;101902.19;;;12.79;74.74
55044;BME280;54902;50.420;18.854;2023-05-25T01:18:49;101903.17;;;12.78;74.76
55044;BME280;54902;50.420;18.854;2023-05-25T01:19:23;101893.19;;;12.77;74.75
55044;BME280;54902;50.420;18.854;2023-05-25T01:19:55;101891.43;;;12.76;74.77
55044;BME280;54902;50.420;18.854;2023-05-25T01:20:29;101893.19;;;12.77;74.82
55044;BME280;54902;50.420;18.854;2023-05-25T01:21:07;101895.93;;;12.77;74.77
55044;BME280;54902;50.420;18.854;2023-05-25T01:22:00;101900.55;;;12.77;74.80
55044;BME280;54902;50.420;18.854;2023-05-25T01:22:39;101908.91;;;12.75;74.84
55044;BME280;54902;50.420;18.854;2023-05-25T01:23:13;101894.29;;;12.75;74.81
55044;BME280;54902;50.420;18.854;2023-05-25T01:23:54;101901.66;;;12.74;74.77
55044;BME280;54902;50.420;18.854;2023-05-25T01:24:32;101901.66;;;12.74;74.82
55044;BME280;54902;50.420;18.854;2023-05-25T01:25:12;101907.13;;;12.74;74.82
55044;BME280;54902;50.420;18.854;2023-05-25T01:25:48;101909.11;;;12.72;74.79
55044;BME280;54902;50.420;18.854;2023-05-25T01:26:23;101900.88;;;12.72;74.75
55044;BME280;54902;50.420;18.854;2023-05-25T01:27:48;101907.38;;;12.71;74.71
55044;BME280;54902;50.420;18.854;2023-05-25T01:28:24;101905.50;;;12.72;74.73
55044;BME280;54902;50.420;18.854;2023-05-25T01:28:58;101899.23;;;12.70;74.75
55044;BME280;54902;50.420;18.854;2023-05-25T01:29:32;101895.52;;;12.71;74.71
55044;BME280;54902;50.420;18.854;2023-05-25T01:30:09;101900.13;;;12.70;74.73
55044;BME280;54902;50.420;18.854;2023-05-25T01:30:45;101905.63;;;12.70;74.79
55044;BME280;54902;50.420;18.854;2023-05-25T01:31:21;101898.13;;;12.72;74.81
55044;BME280;54902;50.420;18.854;2023-05-25T01:31:53;101900.13;;;12.70;74.80
55044;BME280;54902;50.420;18.854;2023-05-25T01:32:25;101888.27;;;12.70;74.79
55044;BME280;54902;50.420;18.854;2023-05-25T01:32:58;101892.89;;;12.69;74.79
55044;BME280;54902;50.420;18.854;2023-05-25T01:33:31;101890.15;;;12.69;74.78
55044;BME280;54902;50.420;18.854;2023-05-25T01:34:03;101893.76;;;12.70;74.81
55044;BME280;54902;50.420;18.854;2023-05-25T01:34:35;101898.37;;;12.69;74.85
55044;BME280;54902;50.420;18.854;2023-05-25T01:35:08;101892.89;;;12.69;74.78
55044;BME280;54902;50.420;18.854;2023-05-25T01:35:40;101892.03;;;12.69;74.79
55044;BME280;54902;50.420;18.854;2023-05-25T01:36:11;101890.15;;;12.69;74.79
55044;BME280;54902;50.420;18.854;2023-05-25T01:36:43;101898.37;;;12.69;74.77
55044;BME280;54902;50.420;18.854;2023-05-25T01:37:14;101898.37;;;12.69;74.81
55044;BME280;54902;50.420;18.854;2023-05-25T01:37:48;101892.89;;;12.69;74.84
55044;BME280;54902;50.420;18.854;2023-05-25T01:38:19;101896.61;;;12.68;74.83
55044;BME280;54902;50.420;18.854;2023-05-25T01:38:50;101903.85;;;12.69;74.83
55044;BME280;54902;50.420;18.854;2023-05-25T01:39:21;101895.63;;;12.69;74.82
55044;BME280;54902;50.420;18.854;2023-05-25T01:39:52;101904.73;;;12.70;74.80
55044;BME280;54902;50.420;18.854;2023-05-25T01:40:24;101898.37;;;12.69;74.77
55044;BME280;54902;50.420;18.854;2023-05-25T01:40:54;101898.61;;;12.66;74.76
55044;BME280;54902;50.420;18.854;2023-05-25T01:41:25;101898.37;;;12.69;74.79
55044;BME280;54902;50.420;18.854;2023-05-25T01:41:59;101892.89;;;12.69;74.77
55044;BME280;54902;50.420;18.854;2023-05-25T01:42:31;101903.85;;;12.69;74.73
55044;BME280;54902;50.420;18.854;2023-05-25T01:43:02;101911.09;;;12.70;74.76
55044;BME280;54902;50.420;18.854;2023-05-25T01:43:33;101903.00;;;12.69;74.75
55044;BME280;54902;50.420;18.854;2023-05-25T01:44:05;101900.26;;;12.69;74.77
55044;BME280;54902;50.420;18.854;2023-05-25T01:44:37;101906.60;;;12.69;74.78
55044;BME280;54902;50.420;18.854;2023-05-25T01:45:10;101893.76;;;12.70;74.76
55044;BME280;54902;50.420;18.854;2023-05-25T01:45:43;101899.23;;;12.70;74.81
55044;BME280;54902;50.420;18.854;2023-05-25T01:46:20;101893.76;;;12.70;74.83
55044;BME280;54902;50.420;18.854;2023-05-25T01:47:02;101902.88;;;12.70;74.86
55044;BME280;54902;50.420;18.854;2023-05-25T01:49:08;101901.89;;;12.71;74.90
55044;BME280;54902;50.420;18.854;2023-05-25T01:50:42;101900.99;;;12.71;74.85
55044;BME280;54902;50.420;18.854;2023-05-25T01:51:35;101894.65;;;12.70;74.81
55044;BME280;54902;50.420;18.854;2023-05-25T01:52:44;101894.65;;;12.70;74.81
55044;BME280;54902;50.420;18.854;2023-05-25T01:53:27;101898.26;;;12.71;74.85
55044;BME280;54902;50.420;18.854;2023-05-25T01:54:04;101894.65;;;12.70;74.87
55044;BME280;54902;50.420;18.854;2023-05-25T01:54:42;101896.41;;;12.71;74.86
55044;BME280;54902;50.420;18.854;2023-05-25T01:55:16;101895.52;;;12.71;74.83
55044;BME280;54902;50.420;18.854;2023-05-25T01:56:04;101890.93;;;12.71;74.89
55044;BME280;54902;50.420;18.854;2023-05-25T01:56:31;101888.18;;;12.71;74.93
55044;BME280;54902;50.420;18.854;2023-05-25T01:57:06;101893.67;;;12.71;74.95
55044;BME280;54902;50.420;18.854;2023-05-25T01:57:43;101892.77;;;12.71;74.88
55044;BME280;54902;50.420;18.854;2023-05-25T01:58:16;101895.39;;;12.72;74.92
55044;BME280;54902;50.420;18.854;2023-05-25T01:58:52;101890.93;;;12.71;74.92
55044;BME280;54902;50.420;18.854;2023-05-25T01:59:25;101888.18;;;12.71;74.88
55044;BME280;54902;50.420;18.854;2023-05-25T01:59:57;101891.78;;;12.72;74.88
55044;BME280;54902;50.420;18.854;2023-05-25T02:00:33;101885.44;;;12.71;74.88
55044;BME280;54902;50.420;18.854;2023-05-25T02:01:07;101893.67;;;12.71;74.86
55044;BME280;54902;50.420;18.854;2023-05-25T02:01:40;101885.44;;;12.71;74.83
55044;BME280;54902;50.420;18.854;2023-05-25T02:02:14;101890.02;;;12.71;74.82
55044;BME280;54902;50.420;18.854;2023-05-25T02:02:46;101879.96;;;12.71;74.83
55044;BME280;54902;50.420;18.854;2023-05-25T02:03:18;101885.44;;;12.71;74.89
55044;BME280;54902;50.420;18.854;2023-05-25T02:03:50;101888.18;;;12.71;74.91
55044;BME280;54902;50.420;18.854;2023-05-25T02:04:22;101885.44;;;12.71;74.89
55044;BME280;54902;50.420;18.854;2023-05-25T02:04:53;101889.16;;;12.70;74.87
55044;BME280;54902;50.420;18.854;2023-05-25T02:05:27;101887.29;;;12.71;74.85
55044;BME280;54902;50.420;18.854;2023-05-25T02:05:58;101885.44;;;12.71;74.84
55044;BME280;54902;50.420;18.854;2023-05-25T02:06:29;101885.44;;;12.71;74.82
55044;BME280;54902;50.420;18.854;2023-05-25T02:07:04;101881.92;;;12.69;74.74
55044;BME280;54902;50.420;18.854;2023-05-25T02:07:35;101887.29;;;12.71;74.80
55044;BME280;54902;50.420;18.854;2023-05-25T02:08:06;101879.96;;;12.71;74.81
55044;BME280;54902;50.420;18.854;2023-05-25T02:08:37;101880.82;;;12.72;74.78
55044;BME280;54902;50.420;18.854;2023-05-25T02:09:08;101887.17;;;12.72;74.81
55044;BME280;54902;50.420;18.854;2023-05-25T02:09:39;101886.30;;;12.72;74.77
55044;BME280;54902;50.420;18.854;2023-05-25T02:10:10;101884.41;;;12.72;74.78
55044;BME280;54902;50.420;18.854;2023-05-25T02:10:41;101878.95;;;12.72;74.76
55044;BME280;54902;50.420;18.854;2023-05-25T02:11:13;101888.06;;;12.73;74.76
55044;BME280;54902;50.420;18.854;2023-05-25T02:11:44;101889.78;;;12.74;74.76
55044;BME280;54902;50.420;18.854;2023-05-25T02:12:15;101883.45;;;12.73;74.75
55044;BME280;54902;50.420;18.854;2023-05-25T02:12:46;101876.68;;;12.66;74.74
55044;BME280;54902;50.420;18.854;2023-05-25T02:13:17;101880.70;;;12.73;74.78
55044;BME280;54902;50.420;18.854;2023-05-25T02:13:50;101877.96;;;12.73;74.79
55044;BME280;54902;50.420;18.854;2023-05-25T02:14:21;101879.72;;;12.74;74.80
55044;BME280;54902;50.420;18.854;2023-05-25T02:14:52;101885.20;;;12.74;74.78
55044;BME280;54902;50.420;18.854;2023-05-25T02:15:23;101875.99;;;12.75;74.80
55044;BME280;54902;50.420;18.854;2023-05-25T02:15:54;101881.48;;;12.75;74.84
55044;BME280;54902;50.420;18.854;2023-05-25T02:16:25;101882.33;;;12.76;74.84
55044;BME280;54902;50.420;18.854;2023-05-25T02:16:56;101881.48;;;12.75;74.81
55044;BME280;54902;50.420;18.854;2023-05-25T02:17:33;101883.20;;;12.76;74.81
55044;BME280;54902;50.420;18.854;2023-05-25T02:18:06;101880.34;;;12.77;74.83
55044;BME280;54902;50.420;18.854;2023-05-25T02:18:38;101884.96;;;12.77;74.80
55044;BME280;54902;50.420;18.854;2023-05-25T02:19:09;101884.10;;;12.77;74.82
55044;BME280;54902;50.420;18.854;2023-05-25T02:19:42;101888.55;;;12.77;74.81
55044;BME280;54902;50.420;18.854;2023-05-25T02:20:13;101882.22;;;12.77;74.83
55044;BME280;54902;50.420;18.854;2023-05-25T02:20:44;101892.20;;;12.78;74.79
55044;BME280;54902;50.420;18.854;2023-05-25T02:21:17;101885.81;;;12.77;74.79
55044;BME280;54902;50.420;18.854;2023-05-25T02:21:48;101881.23;;;12.78;74.81
55044;BME280;54902;50.420;18.854;2023-05-25T02:22:19;101884.84;;;12.78;74.79
55044;BME280;54902;50.420;18.854;2023-05-25T02:22:50;101888.48;;;12.79;74.88
55044;BME280;54902;50.420;18.854;2023-05-25T02:23:21;101882.10;;;12.78;74.83
55044;BME280;54902;50.420;18.854;2023-05-25T02:23:52;101890.33;;;12.78;74.85
55044;BME280;54902;50.420;18.854;2023-05-25T02:24:27;101891.23;;;12.79;74.84
55044;BME280;54902;50.420;18.854;2023-05-25T02:24:58;101882.99;;;12.79;74.86
55044;BME280;54902;50.420;18.854;2023-05-25T02:25:29;101896.70;;;12.79;74.83
55044;BME280;54902;50.420;18.854;2023-05-25T02:26:00;101889.34;;;12.79;74.84
55044;BME280;54902;50.420;18.854;2023-05-25T02:26:31;101890.20;;;12.80;74.81
55044;BME280;54902;50.420;18.854;2023-05-25T02:27:05;101892.95;;;12.80;74.79
55044;BME280;54902;50.420;18.854;2023-05-25T02:27:36;101892.95;;;12.80;74.79
55044;BME280;54902;50.420;18.854;2023-05-25T02:28:07;101890.20;;;12.80;74.79
55044;BME280;54902;50.420;18.854;2023-05-25T02:28:38;101890.20;;;12.80;74.84
55044;BME280;54902;50.420;18.854;2023-05-25T02:29:09;101897.57;;;12.79;74.87
55044;BME280;54902;50.420;18.854;2023-05-25T02:29:41;101892.09;;;12.79;74.84
55044;BME280;54902;50.420;18.854;2023-05-25T02:30:12;101893.96;;;12.79;74.84
55044;BME280;54902;50.420;18.854;2023-05-25T02:30:43;101892.95;;;12.80;74.83
55044;BME280;54902;50.420;18.854;2023-05-25T02:31:14;101900.31;;;12.79;74.83
55044;BME280;54902;50.420;18.854;2023-05-25T02:31:46;101895.69;;;12.80;74.82
55044;BME280;54902;50.420;18.854;2023-05-25T02:32:17;101900.31;;;12.79;74.80
55044;BME280;54902;50.420;18.854;2023-05-25T02:32:47;101897.57;;;12.79;74.91
55044;BME280;54902;50.420;18.854;2023-05-25T02:33:20;101901.18;;;12.80;74.81
55044;BME280;54902;50.420;18.854;2023-05-25T02:33:51;101898.43;;;12.80;74.80
55044;BME280;54902;50.420;18.854;2023-05-25T02:34:22;101894.83;;;12.79;74.79
55044;BME280;54902;50.420;18.854;2023-05-25T02:34:54;101901.18;;;12.80;74.79
55044;BME280;54902;50.420;18.854;2023-05-25T02:35:25;101895.69;;;12.80;74.79
55044;BME280;54902;50.420;18.854;2023-05-25T02:35:56;101893.96;;;12.79;74.84
55044;BME280;54902;50.420;18.854;2023-05-25T02:36:27;101884.96;;;12.77;75.12
55044;BME280;54902;50.420;18.854;2023-05-25T02:36:59;101885.73;;;12.79;74.96
55044;BME280;54902;50.420;18.854;2023-05-25T02:37:30;101891.10;;;12.80;74.96
55044;BME280;54902;50.420;18.854;2023-05-25T02:38:01;101901.18;;;12.80;74.97
55044;BME280;54902;50.420;18.854;2023-05-25T02:38:32;101896.70;;;12.79;74.93
55044;BME280;54902;50.420;18.854;2023-05-25T02:39:03;101894.83;;;12.79;74.91
55044;BME280;54902;50.420;18.854;2023-05-25T02:39:35;101894.83;;;12.79;74.90
55044;BME280;54902;50.420;18.854;2023-05-25T02:40:06;101887.59;;;12.78;74.91
55044;BME280;54902;50.420;18.854;2023-05-25T02:40:40;101899.45;;;12.79;74.86
55044;BME280;54902;50.420;18.854;2023-05-25T02:41:11;101905.92;;;12.78;74.85
55044;BME280;54902;50.420;18.854;2023-05-25T02:41:42;101898.55;;;12.78;74.83
55044;BME280;54902;50.420;18.854;2023-05-25T02:42:13;101897.70;;;12.78;74.83
55044;BME280;54902;50.420;18.854;2023-05-25T02:42:44;101896.80;;;12.77;74.83
55044;BME280;54902;50.420;18.854;2023-05-25T02:43:15;101896.80;;;12.77;74.85
55044;BME280;54902;50.420;18.854;2023-05-25T02:43:46;101902.27;;;12.77;74.86
55044;BME280;54902;50.420;18.854;2023-05-25T02:44:17;101901.41;;;12.77;74.79
55044;BME280;54902;50.420;18.854;2023-05-25T02:44:48;101902.27;;;12.77;74.81
55044;BME280;54902;50.420;18.854;2023-05-25T02:45:19;101898.67;;;12.77;74.82
55044;BME280;54902;50.420;18.854;2023-05-25T02:45:50;101906.03;;;12.77;74.80
55044;BME280;54902;50.420;18.854;2023-05-25T02:46:21;101901.41;;;12.77;74.79
55044;BME280;54902;50.420;18.854;2023-05-25T02:46:52;101903.30;;;12.77;74.79
55044;BME280;54902;50.420;18.854;2023-05-25T02:47:23;101899.66;;;12.76;74.79
55044;BME280;54902;50.420;18.854;2023-05-25T02:47:55;101909.76;;;12.76;74.80
55044;BME280;54902;50.420;18.854;2023-05-25T02:48:26;101904.27;;;12.76;74.80
55044;BME280;54902;50.420;18.854;2023-05-25T02:48:57;101906.03;;;12.77;74.80
55044;BME280;54902;50.420;18.854;2023-05-25T02:49:29;101908.77;;;12.77;74.77
55044;BME280;54902;50.420;18.854;2023-05-25T02:50:00;101899.66;;;12.76;74.81
55044;BME280;54902;50.420;18.854;2023-05-25T02:50:31;101906.03;;;12.77;74.85
55044;BME280;54902;50.420;18.854;2023-05-25T02:51:02;101905.15;;;12.76;74.86
55044;BME280;54902;50.420;18.854;2023-05-25T02:51:33;101905.15;;;12.76;74.87
55044;BME280;54902;50.420;18.854;2023-05-25T02:52:04;101906.03;;;12.77;74.88
55044;BME280;54902;50.420;18.854;2023-05-25T02:52:35;101911.52;;;12.77;74.91